Time;durP1;ratioP1;P1;durP2;ratioP2;P2;SDS_P1;SDS_P2;PMS_P1;PMS_P2;Temp;Humidity;BMP_temperature;BMP_pressure;BME280_temperature;BME280_humidity;BME280_pressure;Samples;Min_cycle;Max_cycle;Signal;HPM_P1;HPM_P2
2023/07/17 00:01:22;;;;;;;5.88;3.72;;;;;;;18.46;56.41;100332.06;10154324;29;20575;-74
2023/07/17 00:06:25;;;;;;;7.78;3.33;;;;;;;18.52;56.17;100342.25;10148042;29;20065;-74
2023/07/17 00:11:29;;;;;;;7.65;3.90;;;;;;;18.33;57.14;100336.19;10153485;29;20052;-73
2023/07/17 00:16:32;;;;;;;8.68;4.70;;;;;;;18.49;56.68;100337.16;10141408;29;20040;-73
2023/07/17 00:21:35;;;;;;;7.90;3.58;;;;;;;18.58;56.53;100333.38;10147531;29;20099;-73
2023/07/17 00:26:39;;;;;;;6.15;3.40;;;;;;;18.61;56.04;100319.41;10158151;29;20067;-73
2023/07/17 00:31:42;;;;;;;7.15;4.28;;;;;;;18.48;56.22;100322.69;10155882;29;20111;-73
2023/07/17 00:36:45;;;;;;;11.57;4.15;;;;;;;18.36;56.71;100326.84;10155538;29;20048;-73
2023/07/17 00:41:50;;;;;;;8.25;3.75;;;;;;;18.35;56.69;100323.28;10148292;29;20055;-73
2023/07/17 00:46:55;;;;;;;5.70;3.90;;;;;;;18.29;57.11;100337.59;10145750;29;20056;-74
2023/07/17 00:51:59;;;;;;;6.00;3.75;;;;;;;18.07;58.32;100338.31;10156184;29;20068;-73
2023/07/17 00:57:06;;;;;;;7.00;4.45;;;;;;;18.22;57.98;100316.72;10147666;29;20049;-77
2023/07/17 01:02:10;;;;;;;7.15;3.80;;;;;;;18.33;57.89;100321.75;10149412;29;20072;-75
2023/07/17 01:07:12;;;;;;;8.30;4.57;;;;;;;18.35;58.71;100327.88;10143174;29;20059;-73
2023/07/17 01:12:16;;;;;;;10.52;4.70;;;;;;;18.06;60.62;100340.19;10146003;29;20103;-72
2023/07/17 01:17:19;;;;;;;6.15;4.30;;;;;;;17.88;61.31;100331.38;10153488;29;20039;-73
2023/07/17 01:22:26;;;;;;;11.63;4.15;;;;;;;17.74;61.66;100338.34;10155866;29;20104;-73
2023/07/17 01:27:31;;;;;;;9.80;5.45;;;;;;;17.68;61.96;100329.03;10155722;29;20044;-73
2023/07/17 01:32:33;;;;;;;7.90;4.53;;;;;;;17.73;62.05;100324.97;10151026;29;20052;-73
2023/07/17 01:37:39;;;;;;;7.85;4.85;;;;;;;17.76;61.66;100333.59;10150320;29;20108;-74
2023/07/17 01:42:43;;;;;;;6.63;4.50;;;;;;;17.58;62.32;100343.81;10155844;29;20075;-73
2023/07/17 01:47:46;;;;;;;7.00;4.45;;;;;;;17.36;63.33;100362.50;10155949;29;20400;-73
2023/07/17 01:52:49;;;;;;;8.45;4.22;;;;;;;17.25;63.82;100368.25;10148410;29;20522;-73
2023/07/17 01:57:53;;;;;;;8.68;4.50;;;;;;;17.21;62.87;100366.91;10140413;29;20056;-74
2023/07/17 02:02:56;;;;;;;6.72;4.30;;;;;;;17.19;62.47;100375.19;10149658;29;20052;-72
2023/07/17 02:07:59;;;;;;;7.13;4.07;;;;;;;17.07;62.86;100372.97;10153515;29;20051;-74
2023/07/17 02:13:06;;;;;;;8.68;4.10;;;;;;;17.22;62.09;100379.44;10153353;29;20050;-73
2023/07/17 02:18:09;;;;;;;6.95;4.50;;;;;;;16.97;62.62;100400.22;10145610;29;20476;-75
2023/07/17 02:23:11;;;;;;;7.45;4.32;;;;;;;16.65;63.90;100420.81;10141788;29;20041;-73
2023/07/17 02:28:16;;;;;;;8.88;4.65;;;;;;;16.36;66.30;100424.75;10149263;29;20875;-74
2023/07/17 02:33:19;;;;;;;10.25;4.95;;;;;;;15.34;84.47;100417.19;10149342;29;20059;-73
2023/07/17 02:38:26;;;;;;;13.73;5.90;;;;;;;14.53;83.31;100419.78;10154452;29;20044;-74
2023/07/17 02:43:31;;;;;;;10.48;5.82;;;;;;;14.63;83.84;100406.22;10148668;29;20473;-72
2023/07/17 02:48:34;;;;;;;13.35;5.28;;;;;;;14.91;81.47;100415.16;10139342;29;20047;-73
2023/07/17 02:53:37;;;;;;;11.77;5.00;;;;;;;14.97;81.07;100403.75;10156125;29;20036;-74
2023/07/17 02:58:43;;;;;;;10.55;5.45;;;;;;;14.87;80.43;100403.81;10150960;29;20068;-74
2023/07/17 03:03:46;;;;;;;15.30;6.57;;;;;;;15.01;80.46;100407.84;10153754;29;20052;-74
2023/07/17 03:08:49;;;;;;;11.52;5.00;;;;;;;15.13;80.32;100408.47;10139079;29;20059;-73
2023/07/17 03:13:54;;;;;;;9.63;5.25;;;;;;;15.17;80.32;100426.97;10138242;29;20059;-74
2023/07/17 03:18:57;;;;;;;8.32;4.63;;;;;;;15.15;79.52;100420.00;10150133;29;20044;-73
2023/07/17 03:24:00;;;;;;;8.90;4.47;;;;;;;15.02;79.62;100434.75;10152699;29;20106;-73
2023/07/17 03:29:04;;;;;;;7.47;4.20;;;;;;;15.15;78.09;100436.25;10152106;29;20044;-73
2023/07/17 03:34:10;;;;;;;9.93;5.07;;;;;;;15.10;78.73;100447.50;10139897;29;20055;-72
2023/07/17 03:39:13;;;;;;;9.25;5.25;;;;;;;14.41;83.02;100443.44;10141451;29;20060;-73
2023/07/17 03:44:17;;;;;;;15.23;5.28;;;;;;;14.09;86.16;100438.38;10148407;29;20044;-75
2023/07/17 03:49:20;;;;;;;9.85;4.78;;;;;;;14.05;86.13;100429.75;10154293;29;20104;-75
2023/07/17 03:54:24;;;;;;;8.23;4.35;;;;;;;14.33;85.12;100435.19;10154778;29;20076;-75
2023/07/17 03:59:47;;;;;;;8.73;5.03;;;;;;;14.40;84.48;100435.47;10146271;29;20067;-74
2023/07/17 04:04:51;;;;;;;12.57;5.23;;;;;;;14.42;84.05;100442.44;10161759;29;20140;-74
2023/07/17 04:09:56;;;;;;;8.40;4.60;;;;;;;14.53;83.48;100439.53;10158077;29;20054;-74
2023/07/17 04:15:00;;;;;;;8.60;5.20;;;;;;;14.51;82.48;100438.03;10162652;29;20579;-74
2023/07/17 04:20:06;;;;;;;10.23;4.28;;;;;;;14.70;81.42;100428.94;10148831;29;20143;-73
2023/07/17 04:25:10;;;;;;;9.05;4.93;;;;;;;14.72;81.09;100425.09;10151933;29;20040;-75
2023/07/17 04:30:16;;;;;;;11.68;4.32;;;;;;;14.94;80.38;100426.53;10147607;29;20120;-73
2023/07/17 04:35:19;;;;;;;7.75;4.13;;;;;;;15.08;79.53;100432.44;10160333;29;20040;-73
2023/07/17 04:40:23;;;;;;;11.23;4.45;;;;;;;15.07;79.80;100442.41;10158864;29;20124;-73
2023/07/17 04:45:29;;;;;;;7.72;3.92;;;;;;;15.00;79.24;100449.41;10151057;29;20047;-74
2023/07/17 04:50:34;;;;;;;11.02;4.70;;;;;;;15.01;79.60;100453.84;10144102;29;20048;-73
2023/07/17 04:55:37;;;;;;;7.63;3.95;;;;;;;15.00;79.55;100449.41;10149002;29;20047;-74
2023/07/17 05:00:45;;;;;;;10.68;4.40;;;;;;;15.15;79.26;100450.63;10156926;29;20480;-74
2023/07/17 05:05:49;;;;;;;6.88;3.83;;;;;;;15.27;78.74;100451.22;10158657;29;20056;-74
2023/07/17 05:10:55;;;;;;;8.65;4.30;;;;;;;15.01;77.93;100464.66;10155648;29;20048;-74
2023/07/17 05:16:04;;;;;;;8.43;3.63;;;;;;;15.12;77.81;100467.16;10147678;29;20484;-74
2023/07/17 05:21:08;;;;;;;8.38;3.83;;;;;;;15.17;77.96;100464.84;10170052;29;20087;-74
2023/07/17 05:26:11;;;;;;;6.60;4.05;;;;;;;15.44;77.31;100463.09;10159653;29;20052;-73
2023/07/17 05:31:18;;;;;;;9.68;4.25;;;;;;;15.46;76.12;100467.34;10155340;29;20052;-73
2023/07/17 05:36:22;;;;;;;6.82;4.15;;;;;;;15.69;76.17;100478.59;10145266;29;20385;-73
2023/07/17 05:41:25;;;;;;;8.30;4.68;;;;;;;15.73;75.22;100480.97;10135869;29;20420;-74
2023/07/17 05:46:31;;;;;;;6.68;3.30;;;;;;;15.74;74.06;100482.69;10141046;29;20487;-74
2023/07/17 05:51:34;;;;;;;7.47;3.97;;;;;;;15.41;74.51;100494.06;10148021;29;20049;-74
2023/07/17 05:56:37;;;;;;;5.00;2.70;;;;;;;15.28;74.59;100496.25;10147310;29;20044;-73
2023/07/17 06:01:42;;;;;;;6.70;3.42;;;;;;;15.05;75.21;100503.91;10146270;29;20619;-74
2023/07/17 06:06:45;;;;;;;9.10;3.33;;;;;;;15.17;73.99;100502.72;10131009;29;20052;-74
2023/07/17 06:11:48;;;;;;;5.47;2.35;;;;;;;15.52;72.63;100511.06;10139541;29;20056;-73
2023/07/17 06:16:52;;;;;;;4.70;3.10;;;;;;;15.50;72.32;100510.38;10152549;29;20523;-74
2023/07/17 06:21:55;;;;;;;9.68;3.10;;;;;;;15.60;72.27;100514.69;10149108;29;20555;-72
2023/07/17 06:26:59;;;;;;;7.07;2.85;;;;;;;15.77;70.88;100509.44;10158962;29;20088;-72
2023/07/17 06:32:04;;;;;;;4.18;2.50;;;;;;;15.63;70.26;100517.13;10152511;29;20116;-73
2023/07/17 06:37:07;;;;;;;8.00;2.53;;;;;;;15.91;69.90;100522.47;10152968;29;20141;-73
2023/07/17 06:42:10;;;;;;;5.97;2.45;;;;;;;16.08;68.64;100529.72;10162262;29;20055;-72
2023/07/17 06:47:14;;;;;;;6.55;2.60;;;;;;;16.09;68.59;100534.13;10158304;29;20111;-73
2023/07/17 06:52:38;;;;;;;5.07;2.50;;;;;;;16.53;66.94;100536.00;10111343;29;1099736;-72
2023/07/17 06:57:41;;;;;;;9.80;3.20;;;;;;;17.10;66.36;100530.88;10138848;29;20119;-72
2023/07/17 07:02:45;;;;;;;5.65;2.88;;;;;;;17.24;64.81;100537.56;10142508;29;20084;-72
2023/07/17 07:07:48;;;;;;;8.38;3.47;;;;;;;16.75;65.52;100542.75;10153541;29;20094;-73
2023/07/17 07:12:51;;;;;;;8.93;2.70;;;;;;;17.17;64.31;100537.41;10152941;29;20046;-72
2023/07/17 07:17:55;;;;;;;7.85;2.55;;;;;;;17.14;63.56;100556.72;10160178;29;20445;-72
2023/07/17 07:22:58;;;;;;;8.48;2.70;;;;;;;17.38;61.58;100550.50;10152499;29;20117;-72
2023/07/17 07:28:01;;;;;;;4.55;2.75;;;;;;;17.30;60.46;100547.75;10154117;29;20040;-72
2023/07/17 07:33:05;;;;;;;5.18;2.60;;;;;;;17.99;59.71;100544.88;10164336;29;20067;-73
2023/07/17 07:38:08;;;;;;;4.35;1.95;;;;;;;18.76;55.22;100558.94;10167423;29;20044;-73
2023/07/17 07:43:11;;;;;;;4.72;2.35;;;;;;;18.54;54.78;100558.66;10159885;29;20392;-74
2023/07/17 07:48:15;;;;;;;5.75;2.70;;;;;;;19.92;50.86;100555.56;10151063;29;20057;-73
2023/07/17 07:53:18;;;;;;;4.55;2.42;;;;;;;19.82;52.02;100572.13;10152302;29;20041;-73
2023/07/17 07:58:21;;;;;;;7.05;3.47;;;;;;;19.48;50.50;100577.94;10158118;29;20405;-73
2023/07/17 08:03:25;;;;;;;5.22;2.50;;;;;;;18.88;49.57;100575.78;10156537;29;20056;-71
2023/07/17 08:08:28;;;;;;;5.22;2.85;;;;;;;18.67;49.86;100579.00;10158997;29;20049;-73
2023/07/17 08:13:31;;;;;;;5.70;2.53;;;;;;;18.70;50.74;100573.22;10152673;29;20419;-72
2023/07/17 08:18:36;;;;;;;4.75;3.35;;;;;;;19.05;50.15;100582.03;10158899;29;20044;-72
2023/07/17 08:23:38;;;;;;;5.80;3.35;;;;;;;19.37;49.78;100581.91;10165393;29;20496;-72
2023/07/17 08:28:41;;;;;;;4.57;2.70;;;;;;;19.40;48.58;100592.44;10162590;29;20051;-73
2023/07/17 08:33:46;;;;;;;3.83;2.47;;;;;;;19.10;48.18;100588.63;10158321;29;20059;-72
2023/07/17 08:38:49;;;;;;;8.00;4.55;;;;;;;19.62;47.75;100596.28;10154802;29;20043;-74
2023/07/17 08:43:52;;;;;;;9.10;3.45;;;;;;;19.59;47.63;100590.34;10158743;29;20063;-73
2023/07/17 08:48:57;;;;;;;5.88;3.47;;;;;;;19.73;46.90;100599.63;10165310;29;20052;-73
2023/07/17 08:54:03;;;;;;;7.50;3.67;;;;;;;19.44;46.49;100577.44;10164888;29;20044;-73
2023/07/17 08:59:26;;;;;;;4.85;3.00;;;;;;;19.37;46.54;100603.69;10153859;29;20068;-72
2023/07/17 09:04:32;;;;;;;5.93;2.97;;;;;;;19.73;46.87;100575.94;10150597;29;20048;-73
2023/07/17 09:09:34;;;;;;;5.80;3.17;;;;;;;20.08;46.46;100584.56;10150893;29;20046;-74
2023/07/17 09:14:38;;;;;;;6.45;3.78;;;;;;;20.64;45.05;100595.19;10157541;29;20048;-73
2023/07/17 09:19:43;;;;;;;5.30;3.00;;;;;;;20.06;45.90;100581.19;10153081;29;20040;-74
2023/07/17 09:24:49;;;;;;;5.78;3.70;;;;;;;20.17;45.48;100591.66;10152509;29;20039;-72
2023/07/17 09:29:52;;;;;;;7.30;3.90;;;;;;;20.89;44.74;100593.06;10144080;29;20040;-72
2023/07/17 09:35:04;;;;;;;5.47;3.72;;;;;;;21.12;43.04;100593.88;10150328;29;20052;-72
2023/07/17 09:40:09;;;;;;;6.85;3.53;;;;;;;20.76;43.14;100593.69;10157022;29;20048;-73
2023/07/17 09:45:12;;;;;;;5.72;3.90;;;;;;;20.23;45.11;100599.09;10150268;29;20036;-73
2023/07/17 09:50:18;;;;;;;10.40;3.97;;;;;;;20.71;44.19;100607.09;10146380;29;20060;-74
2023/07/17 09:55:23;;;;;;;4.38;2.33;;;;;;;21.28;43.37;100611.09;10145320;29;20044;-73
2023/07/17 10:00:28;;;;;;;7.60;4.60;;;;;;;20.86;44.55;100609.81;10152002;29;20134;-74
2023/07/17 10:05:34;;;;;;;9.68;4.65;;;;;;;20.62;44.46;100610.91;10154796;29;20036;-72
2023/07/17 10:10:37;;;;;;;8.50;4.60;;;;;;;20.33;45.30;100610.66;10150218;29;20036;-74
2023/07/17 10:15:40;;;;;;;8.57;4.78;;;;;;;20.13;45.07;100621.19;10145582;29;20044;-74
2023/07/17 10:20:53;;;;;;;10.30;5.53;;;;;;;20.00;45.99;100620.94;10142970;29;20064;-73
2023/07/17 10:26:07;;;;;;;8.88;4.80;;;;;;;20.46;44.82;100641.91;10151306;29;20044;-74
2023/07/17 10:31:16;;;;;;;8.98;6.13;;;;;;;20.24;44.66;100644.47;10154386;29;20419;-72
2023/07/17 10:36:37;;;;;;;5.90;4.15;;;;;;;21.61;41.88;100623.31;10148368;29;20047;-73
2023/07/17 10:41:40;;;;;;;7.43;4.50;;;;;;;21.61;41.55;100622.44;10146639;29;20436;-73
2023/07/17 10:46:43;;;;;;;7.18;4.70;;;;;;;22.21;41.51;100610.31;10152755;29;20042;-73
2023/07/17 10:51:48;;;;;;;6.40;3.55;;;;;;;21.45;42.65;100626.25;10157348;29;20416;-73
2023/07/17 10:56:51;;;;;;;6.85;4.60;;;;;;;22.08;41.42;100622.00;10159564;29;20043;-73
2023/07/17 11:02:01;;;;;;;7.57;3.97;;;;;;;22.28;41.27;100618.59;10155804;29;20397;-72
2023/07/17 11:07:09;;;;;;;7.88;4.07;;;;;;;22.86;39.83;100616.59;10147316;29;20048;-73
2023/07/17 11:12:12;;;;;;;5.63;3.35;;;;;;;22.30;39.32;100622.84;10152151;29;20052;-73
2023/07/17 11:17:15;;;;;;;4.25;3.47;;;;;;;21.36;40.70;100620.03;10155249;29;20044;-72
2023/07/17 11:22:19;;;;;;;5.35;3.45;;;;;;;22.77;39.69;100637.81;10160172;29;20403;-73
2023/07/17 11:27:22;;;;;;;7.13;3.35;;;;;;;22.28;40.35;100619.44;10151526;29;20536;-73
2023/07/17 11:32:29;;;;;;;4.25;2.70;;;;;;;22.66;39.81;100610.13;10143921;29;20524;-73
2023/07/17 11:37:34;;;;;;;7.43;2.45;;;;;;;22.74;38.76;100610.00;10152785;29;20676;-74
2023/07/17 11:42:55;;;;;;;4.32;2.92;;;;;;;22.33;39.71;100638.88;10154244;29;20040;-73
2023/07/17 11:47:58;;;;;;;5.18;2.70;;;;;;;22.49;38.59;100628.69;10154854;29;20199;-74
2023/07/17 11:53:06;;;;;;;4.03;2.20;;;;;;;22.46;39.52;100612.69;10141501;29;20045;-73
2023/07/17 11:58:14;;;;;;;3.53;2.30;;;;;;;21.64;40.37;100614.72;10145186;29;20044;-73
2023/07/17 12:03:17;;;;;;;6.30;2.25;;;;;;;21.56;41.20;100622.19;10155101;29;20119;-73
2023/07/17 12:08:22;;;;;;;7.85;2.33;;;;;;;22.77;39.28;100610.44;10152993;29;20044;-73
2023/07/17 12:13:25;;;;;;;2.63;2.20;;;;;;;23.07;38.27;100610.22;10164796;29;20151;-73
2023/07/17 12:18:28;;;;;;;3.70;2.28;;;;;;;22.65;38.83;100608.41;10152201;29;20054;-74
2023/07/17 12:23:32;;;;;;;3.60;1.90;;;;;;;23.33;37.66;100609.53;10156578;29;20623;-74
2023/07/17 12:28:35;;;;;;;5.88;1.92;;;;;;;23.33;38.05;100606.78;10152891;29;20044;-74
2023/07/17 12:33:39;;;;;;;3.65;2.67;;;;;;;23.27;38.20;100624.06;10157703;29;20104;-74
2023/07/17 12:38:43;;;;;;;2.75;1.58;;;;;;;22.81;37.51;100621.81;10161955;29;20050;-73
2023/07/17 12:43:46;;;;;;;3.65;1.73;;;;;;;21.95;38.29;100610.91;10153667;29;20048;-72
2023/07/17 12:48:49;;;;;;;2.75;2.13;;;;;;;22.33;37.83;100608.75;10152845;29;20501;-75
2023/07/17 12:53:53;;;;;;;2.55;1.67;;;;;;;21.99;38.36;100623.13;10161800;29;20048;-72
2023/07/17 12:58:56;;;;;;;2.50;1.75;;;;;;;21.56;39.03;100611.28;10165785;29;20113;-73
2023/07/17 13:03:59;;;;;;;5.78;1.80;;;;;;;21.23;39.52;100609.78;10165546;29;20135;-73
2023/07/17 13:09:04;;;;;;;4.50;2.35;;;;;;;21.29;39.74;100610.06;10159343;29;20036;-72
2023/07/17 13:14:08;;;;;;;5.55;2.38;;;;;;;21.68;39.97;100609.72;10150466;29;20523;-73
2023/07/17 13:19:11;;;;;;;3.42;1.88;;;;;;;21.11;40.86;100615.91;10147224;29;20051;-73
2023/07/17 13:24:16;;;;;;;2.17;1.98;;;;;;;21.61;40.63;100614.25;10154642;29;20532;-73
2023/07/17 13:29:19;;;;;;;5.40;2.35;;;;;;;21.99;40.55;100603.16;10154249;29;20464;-75
2023/07/17 13:34:22;;;;;;;3.65;2.00;;;;;;;21.86;40.39;100612.91;10155079;29;20044;-73
2023/07/17 13:39:27;;;;;;;2.80;2.00;;;;;;;22.43;40.33;100604.84;10149805;29;20468;-73
2023/07/17 13:44:29;;;;;;;4.57;2.30;;;;;;;23.09;38.65;100605.38;10152407;29;20036;-73
2023/07/17 13:49:32;;;;;;;3.97;2.20;;;;;;;23.73;37.89;100597.91;10156863;29;20060;-72
2023/07/17 13:54:37;;;;;;;3.25;2.13;;;;;;;22.58;39.03;100588.38;10160879;29;20040;-73
2023/07/17 13:59:42;;;;;;;3.05;2.17;;;;;;;22.20;39.97;100597.69;10152456;29;20044;-72
2023/07/17 14:04:45;;;;;;;5.50;1.92;;;;;;;21.30;40.65;100595.38;10148629;29;20760;-73
2023/07/17 14:09:49;;;;;;;2.95;2.10;;;;;;;23.44;38.28;100599.88;10145061;29;20119;-75
2023/07/17 14:14:52;;;;;;;3.33;1.60;;;;;;;24.96;35.85;100571.00;10152160;29;20053;-74
2023/07/17 14:19:55;;;;;;;2.80;2.13;;;;;;;23.23;37.83;100589.91;10152952;29;20048;-73
2023/07/17 14:24:59;;;;;;;4.07;2.03;;;;;;;23.58;38.02;100576.94;10144592;29;20050;-73
2023/07/17 14:30:02;;;;;;;3.05;2.00;;;;;;;23.84;37.33;100578.13;10136858;29;20037;-73
2023/07/17 14:35:06;;;;;;;5.15;1.90;;;;;;;24.43;36.02;100573.78;10153239;29;20505;-74
2023/07/17 14:40:11;;;;;;;3.65;2.05;;;;;;;24.16;36.79;100564.66;10162291;29;20068;-74
2023/07/17 14:45:13;;;;;;;4.35;2.13;;;;;;;24.10;35.77;100567.19;10156761;29;20058;-74
2023/07/17 14:50:19;;;;;;;6.47;2.50;;;;;;;23.62;36.87;100570.03;10150552;29;20053;-74
2023/07/17 14:55:24;;;;;;;3.05;1.90;;;;;;;23.65;36.34;100552.31;10149213;29;20045;-74
2023/07/17 15:00:27;;;;;;;4.88;2.20;;;;;;;23.11;36.73;100556.72;10154281;29;20032;-73
2023/07/17 15:05:30;;;;;;;4.05;2.22;;;;;;;23.63;36.92;100548.91;10150525;29;20048;-73
2023/07/17 15:10:34;;;;;;;2.97;1.80;;;;;;;24.41;37.22;100562.16;10151009;29;20036;-74
2023/07/17 15:15:37;;;;;;;3.03;1.85;;;;;;;25.01;37.62;100560.19;10138814;29;20043;-74
2023/07/17 15:20:40;;;;;;;4.82;1.67;;;;;;;24.06;40.36;100563.19;10138370;29;20051;-74
2023/07/17 15:25:45;;;;;;;3.05;1.98;;;;;;;23.67;41.04;100566.66;10149454;29;20140;-74
2023/07/17 15:30:47;;;;;;;3.30;1.80;;;;;;;23.35;42.37;100565.50;10161963;29;20115;-73
2023/07/17 15:35:51;;;;;;;3.58;1.63;;;;;;;23.34;42.17;100559.16;10156905;29;20100;-73
2023/07/17 15:40:56;;;;;;;3.83;2.00;;;;;;;23.46;42.31;100561.31;10149869;29;20096;-74
2023/07/17 15:45:59;;;;;;;3.97;2.00;;;;;;;23.07;42.71;100558.16;10149473;29;20044;-73
2023/07/17 15:51:02;;;;;;;4.50;2.20;;;;;;;22.47;43.60;100571.44;10159147;29;20513;-74
2023/07/17 15:56:07;;;;;;;3.70;2.05;;;;;;;22.06;44.97;100602.19;10167540;29;20052;-73
2023/07/17 16:01:09;;;;;;;5.63;1.58;;;;;;;21.71;46.43;100619.44;10162702;29;20044;-73
2023/07/17 16:06:13;;;;;;;5.65;2.17;;;;;;;20.64;48.33;100617.88;10152734;29;20072;-74
2023/07/17 16:11:17;;;;;;;3.13;1.83;;;;;;;20.15;50.08;100633.78;10161844;29;20123;-74
2023/07/17 16:16:20;;;;;;;3.85;1.92;;;;;;;20.15;51.32;100628.31;10159416;29;20056;-73
2023/07/17 16:21:23;;;;;;;3.00;1.98;;;;;;;19.99;57.03;100651.06;10166891;29;20060;-73
2023/07/17 16:26:27;;;;;;;3.83;2.08;;;;;;;19.30;58.13;100659.03;10167864;29;20055;-73
2023/07/17 16:31:30;;;;;;;6.95;2.40;;;;;;;19.19;56.72;100662.97;10160430;29;20127;-73
2023/07/17 16:36:36;;;;;;;28.65;4.00;;;;;;;17.74;68.42;100755.88;10154242;29;20514;-72
2023/07/17 16:41:41;;;;;;;5.35;2.47;;;;;;;13.82;94.69;100768.53;10164115;29;20048;-72
2023/07/17 16:46:43;;;;;;;5.90;2.90;;;;;;;13.91;94.04;100781.25;10146699;29;20060;-72
2023/07/17 16:51:46;;;;;;;4.53;2.13;;;;;;;13.83;90.28;100783.78;10161120;29;20095;-72
2023/07/17 16:56:51;;;;;;;3.22;1.77;;;;;;;13.23;91.73;100779.00;10156555;29;20056;-72
2023/07/17 17:01:53;;;;;;;3.33;1.63;;;;;;;13.17;90.47;100793.03;10158473;29;20079;-72
2023/07/17 17:06:56;;;;;;;3.85;1.88;;;;;;;13.48;89.64;100785.03;10163687;29;20047;-73
2023/07/17 17:12:01;;;;;;;3.45;1.90;;;;;;;13.64;87.62;100789.94;10157282;29;20090;-73
2023/07/17 17:17:04;;;;;;;2.75;1.65;;;;;;;13.72;86.17;100792.81;10154804;29;20044;-73
2023/07/17 17:22:07;;;;;;;4.63;2.20;;;;;;;13.67;86.46;100803.16;10151749;29;20049;-72
2023/07/17 17:27:14;;;;;;;3.20;2.78;;;;;;;14.00;86.32;100812.84;10149109;29;20103;-72
2023/07/17 17:32:17;;;;;;;5.22;2.42;;;;;;;13.83;85.29;100824.28;10148811;29;20393;-72
2023/07/17 17:37:19;;;;;;;4.88;2.53;;;;;;;14.03;86.51;100817.97;10156490;29;20099;-72
2023/07/17 17:42:24;;;;;;;4.32;2.83;;;;;;;13.89;84.46;100808.38;10145029;29;20100;-73
2023/07/17 17:47:27;;;;;;;10.13;3.40;;;;;;;13.97;83.67;100782.56;10150148;29;20465;-73
2023/07/17 17:52:30;;;;;;;5.25;3.50;;;;;;;14.00;85.94;100779.56;10147683;29;20048;-72
2023/07/17 17:57:34;;;;;;;11.70;3.70;;;;;;;14.16;84.22;100759.13;10154036;29;20044;-73
2023/07/17 18:02:37;;;;;;;6.25;3.70;;;;;;;14.56;85.43;100750.16;10153670;29;20044;-73
2023/07/17 18:07:40;;;;;;;7.45;3.65;;;;;;;15.11;83.76;100764.91;10151458;29;20045;-73
2023/07/17 18:12:44;;;;;;;6.65;4.00;;;;;;;15.33;85.19;100775.41;10146727;29;20053;-74
2023/07/17 18:17:47;;;;;;;6.95;3.42;;;;;;;15.40;81.11;100784.69;10144594;29;20044;-74
2023/07/17 18:22:50;;;;;;;5.75;3.95;;;;;;;15.07;82.09;100793.25;10148066;29;20052;-74
2023/07/17 18:27:54;;;;;;;6.20;4.05;;;;;;;14.91;83.68;100794.69;10155676;29;20049;-74
2023/07/17 18:32:57;;;;;;;5.32;3.75;;;;;;;14.82;81.32;100807.19;10158630;29;20472;-74
2023/07/17 18:38:00;;;;;;;4.97;3.83;;;;;;;14.48;82.10;100809.47;10146981;29;20127;-74
2023/07/17 18:43:05;;;;;;;9.27;3.97;;;;;;;14.52;79.85;100805.47;10167827;29;20054;-74
2023/07/17 18:48:08;;;;;;;10.05;3.70;;;;;;;14.22;79.57;100819.88;10155689;29;20128;-74
2023/07/17 18:53:11;;;;;;;6.63;3.38;;;;;;;14.31;79.51;100813.63;10162754;29;20044;-74
2023/07/17 18:58:15;;;;;;;6.10;3.58;;;;;;;14.36;78.36;100805.13;10157671;29;20044;-75
2023/07/17 19:03:17;;;;;;;6.70;3.30;;;;;;;14.27;78.60;100811.38;10152316;29;20104;-74
2023/07/17 19:08:21;;;;;;;6.55;3.30;;;;;;;14.25;78.44;100814.19;10149600;29;20111;-74
2023/07/17 19:13:25;;;;;;;8.02;4.35;;;;;;;14.15;79.54;100813.31;10151110;29;20527;-73
2023/07/17 19:18:28;;;;;;;7.18;3.50;;;;;;;13.89;79.59;100821.88;10154685;29;20151;-74
2023/07/17 19:23:31;;;;;;;6.45;3.45;;;;;;;13.96;79.46;100832.13;10153714;29;20047;-74
2023/07/17 19:28:36;;;;;;;4.55;3.50;;;;;;;13.83;78.90;100843.19;10161611;29;20061;-75
2023/07/17 19:33:39;;;;;;;5.68;3.88;;;;;;;13.81;79.12;100851.41;10155591;29;20049;-75
2023/07/17 19:38:42;;;;;;;7.45;4.57;;;;;;;13.83;79.91;100852.13;10157139;29;20064;-76
2023/07/17 19:43:46;;;;;;;9.20;5.22;;;;;;;13.87;80.10;100860.81;10156001;29;20058;-75
2023/07/17 19:48:49;;;;;;;8.63;4.53;;;;;;;13.74;79.92;100857.47;10163425;29;20068;-75
2023/07/17 19:53:52;;;;;;;7.28;4.60;;;;;;;13.64;80.02;100863.69;10155868;29;20048;-73
2023/07/17 19:58:56;;;;;;;11.90;5.00;;;;;;;13.75;79.82;100878.09;10157709;29;20124;-73
2023/07/17 20:03:59;;;;;;;6.00;3.97;;;;;;;13.74;79.76;100877.25;10162620;29;20118;-73
2023/07/17 20:09:02;;;;;;;10.57;4.95;;;;;;;13.83;80.13;100879.13;10163921;29;20041;-74
2023/07/17 20:14:07;;;;;;;8.57;5.30;;;;;;;13.66;80.05;100875.22;10164310;29;20048;-73
2023/07/17 20:19:11;;;;;;;6.30;4.32;;;;;;;13.75;80.17;100880.78;10159132;29;20044;-73
2023/07/17 20:24:14;;;;;;;9.95;5.13;;;;;;;13.79;80.14;100885.78;10166819;29;20048;-73
2023/07/17 20:29:18;;;;;;;9.13;5.32;;;;;;;13.88;81.08;100889.53;10167462;29;20036;-73
2023/07/17 20:34:21;;;;;;;5.75;4.40;;;;;;;13.91;80.75;100891.97;10157554;29;20059;-75
2023/07/17 20:39:24;;;;;;;7.63;4.30;;;;;;;13.93;80.37;100896.25;10141602;29;20067;-74
2023/07/17 20:44:28;;;;;;;6.00;4.43;;;;;;;13.83;79.35;100899.88;10154814;29;20097;-73
2023/07/17 20:49:31;;;;;;;10.85;4.40;;;;;;;13.73;79.21;100902.50;10154916;29;20520;-73
2023/07/17 20:54:35;;;;;;;6.43;4.80;;;;;;;13.61;79.58;100907.13;10163055;29;20079;-72
2023/07/17 20:59:41;;;;;;;5.97;4.57;;;;;;;13.55;79.71;100917.59;10159912;29;20035;-74
2023/07/17 21:04:44;;;;;;;10.68;4.45;;;;;;;13.58;79.67;100910.09;10150862;29;20123;-74
2023/07/17 21:09:48;;;;;;;8.70;4.80;;;;;;;13.60;79.49;100926.16;10146414;29;20075;-73
2023/07/17 21:14:52;;;;;;;13.98;5.78;;;;;;;13.59;79.97;100927.16;10155138;29;20056;-73
2023/07/17 21:19:55;;;;;;;12.57;5.68;;;;;;;13.67;79.94;100930.03;10155981;29;20536;-74
2023/07/17 21:24:58;;;;;;;9.98;5.63;;;;;;;13.67;79.58;100925.50;10155842;29;20055;-74
2023/07/17 21:30:04;;;;;;;7.78;5.90;;;;;;;13.63;79.65;100926.75;10156812;29;20044;-73
2023/07/17 21:35:08;;;;;;;14.75;6.20;;;;;;;13.69;79.71;100936.19;10173755;29;20500;-74
2023/07/17 21:40:12;;;;;;;9.75;5.57;;;;;;;13.58;79.96;100942.50;10156025;29;20508;-73
2023/07/17 21:45:17;;;;;;;9.88;5.32;;;;;;;13.69;79.42;100945.13;10153797;29;20048;-72
2023/07/17 21:50:20;;;;;;;12.15;5.95;;;;;;;13.70;79.22;100954.94;10154275;29;20039;-74
2023/07/17 21:55:23;;;;;;;8.95;5.45;;;;;;;13.76;79.48;100958.94;10158256;29;20048;-74
2023/07/17 22:00:27;;;;;;;11.52;6.18;;;;;;;13.75;78.79;100957.25;10155052;29;20464;-74
2023/07/17 22:05:30;;;;;;;10.07;5.38;;;;;;;13.80;78.70;100959.56;10159470;29;20078;-73
2023/07/17 22:10:33;;;;;;;7.57;5.13;;;;;;;13.74;78.21;100963.66;10169665;29;20492;-73
2023/07/17 22:15:37;;;;;;;9.35;6.20;;;;;;;13.58;78.70;100968.63;10160918;29;20498;-73
2023/07/17 22:20:40;;;;;;;8.57;5.22;;;;;;;13.60;78.80;100972.91;10152944;29;20525;-73
2023/07/17 22:25:43;;;;;;;12.15;6.05;;;;;;;13.56;78.55;100974.16;10154548;29;20053;-73
2023/07/17 22:30:47;;;;;;;9.18;5.22;;;;;;;13.60;78.38;100985.53;10154307;29;20048;-73
2023/07/17 22:35:50;;;;;;;7.47;5.00;;;;;;;13.58;78.43;100976.72;10152654;29;20127;-74
2023/07/17 22:40:53;;;;;;;10.48;6.50;;;;;;;13.68;78.06;100973.09;10156984;29;20466;-73
2023/07/17 22:45:57;;;;;;;9.88;6.18;;;;;;;13.75;77.60;100969.91;10153962;29;20135;-74
2023/07/17 22:51:00;;;;;;;11.50;5.63;;;;;;;13.74;77.09;100968.16;10156791;29;20500;-74
2023/07/17 22:56:03;;;;;;;11.30;5.90;;;;;;;13.70;77.05;100968.44;10149226;29;20051;-73
2023/07/17 23:01:07;;;;;;;12.48;6.63;;;;;;;13.63;77.05;100979.88;10155638;29;20096;-73
2023/07/17 23:06:10;;;;;;;9.75;5.82;;;;;;;13.46;77.91;100984.84;10148731;29;20409;-74
2023/07/17 23:11:13;;;;;;;10.45;6.57;;;;;;;13.34;78.58;100995.78;10143586;29;20036;-73
2023/07/17 23:16:17;;;;;;;13.40;6.57;;;;;;;13.46;78.25;100976.75;10145950;29;20051;-75